Hundvaag 1 weather for Dec 2001
Month no. 174
Obs.
Da.
Temp. Dew Point Precip. Wind
Speed
Wind gusts Cloud cover Press. Humidity Wind dir. Sunny OPT
01.12.2001 7,4   0,7     0 1008,0        
02.12.2001 5,8   12,1     5 1024,9     1  
03.12.2001 4,5   0,0     3 1020,8     1  
04.12.2001 6,9   0,1     2 1010,8        
05.12.2001 4,2   8,1     0 1012,9        
06.12.2001 3,3   0,2     8 1019,7     1  
07.12.2001 1,8   0,0     1 1026,8        
08.12.2001 7,8   6,0     0 1026,1        
09.12.2001 9,2   36,3     0 1026,5        
10.12.2001 7,3   2,1     0 1027,5        
11.12.2001 2,9   0,0     0 1028,0        
12.12.2001 -0,8   0,0     9 1027,6     1  
13.12.2001 -0,8   0,0     10 1027,5     1  
14.12.2001 4,0   0,0     0 1029,3     1  
15.12.2001 1,8   0,0     10 1030,7     1  
16.12.2001 -0,7   0,0     10 1029,3     1  
17.12.2001 -1,2   0,0     10 1028,0     1  
18.12.2001 2,8   0,0     10 1026,6     1  
19.12.2001 5,6   4,1     0 1014,1        
20.12.2001 -1,5   0,8     0 1020,0        
21.12.2001 1,6   9,7     6 1002,6     1  
22.12.2001 -2,8   0,1     10 1010,8     1  
23.12.2001 -1,0   1,0     0 1012,0        
24.12.2001 4,4   12,6     0 1000,2        
25.12.2001 -0,2   1,7     3 992,6     1  
26.12.2001 0,6   6,5     8 998,6     1  
27.12.2001 -3,8   1,5     10 1003,9     1  
28.12.2001 -2,2   0,1     0 999,8        
29.12.2001 -1,9   0,0     0 1003,9        
30.12.2001 -4,4   0,0     10 1012,1     1  
31.12.2001 -5,7   0,2     2 1018,5     1  
Avrg/Sum 1,8   103,9     4,1 1016,8     17